Aeroporto :
LOGIN :

Iscrizione | Disclaimer

   EN    FR    IT 

 










Sommario :    VFR   VFR Marginale   IFR   IFR Intensivo   IFR Molto Intensivo
Visibilità : 
Base nubi : 
>= 8 km
>= 3000ft
5 / 8 km
1000 / 3000 ft
1500m / 5 km
500 / 1000 ft
800 / 1500m
200 / 500 ft
< 800m
< 200 ft
Simboli :   Temporali  Nebbia  Neve Forte  Precipitazioni Forti  Vento > 20 kt
SIGMETs :   Varie  Temporali  Ghiacco  Turbolenza  Onda orograficha  Ceneri Vulcaniche






- Altitudine del aeroporto : 13 ft
- Codice IATA : GOA


LIMJ - Genoa Cristoforo Colombo

ULTIMO METAR :
  • 171120Z 31011KT 280V350 9999 SCT032 19/M04 Q1004

METARs OBSOLETI :
  • 171050Z 34006KT 230V030 9999 FEW030 19/M04 Q1004
  • 171020Z VRB04KT 9999 FEW030 19/M01 Q1005
  • 170950Z 32011KT CAVOK 19/M03 Q1005
  • 170920Z 02007KT 310V070 CAVOK 18/01 Q1005
  • 170850Z 03009KT CAVOK 16/03 Q1005
  • 170820Z 05010KT 020V080 CAVOK 16/03 Q1005
  • 170750Z 06014KT CAVOK 15/04 Q1005
  • 170720Z 03008KT 360V060 CAVOK 14/05 Q1005
  • 170650Z 05014KT CAVOK 12/05 Q1005

TAF TAF LIMJ
Valido dal 17 a 12 ore il 18 a 12 ore UTC


171100Z 1712/1812 34007KT 9999 FEW030
BECMG 1712/1714 23012KT
BECMG 1719/1721 35012KT



MetMap, La meteo Aeronautica in un colpo d'occhio ! - Copyright ORBIFLY Dicembre 2007 - Disclaimer

ORBIFLY MET'MAP TEAM :

Programmazione e sviluppo : Alexandra Zaïnal
Concezione : Baudouin d'Aumeries
Supporto tecnico e logistico : Manuel Goepfert
Aiuto : Marc-Olivier Méhu
Aiuto per la traduzione : Arnaldo La Scala




FONTI E CREDITI :

   NOAA